createdAt,value
2023-04-15T00:01:13.446Z,6.27
2023-04-15T00:03:41.474Z,5.50
2023-04-15T00:06:09.789Z,5.83
2023-04-15T00:08:37.860Z,5.47
2023-04-15T00:11:07.397Z,5.40
2023-04-15T00:13:35.394Z,6.53
2023-04-15T00:16:03.422Z,5.97
2023-04-15T00:18:31.752Z,5.90
2023-04-15T00:20:59.746Z,5.57
2023-04-15T00:23:28.267Z,5.80
2023-04-15T00:25:56.626Z,5.83
2023-04-15T00:28:26.312Z,5.57
2023-04-15T00:30:54.197Z,5.53
2023-04-15T00:33:22.085Z,6.33
2023-04-15T00:35:49.976Z,6.20
2023-04-15T00:38:17.841Z,6.00
2023-04-15T00:40:45.908Z,5.50
2023-04-15T00:43:13.832Z,5.47
2023-04-15T00:45:43.558Z,5.87
2023-04-15T00:48:12.648Z,6.93
2023-04-15T00:50:40.608Z,6.53
2023-04-15T00:53:08.512Z,6.37
2023-04-15T00:55:37.365Z,7.13
2023-04-15T00:58:05.363Z,6.43
2023-04-15T01:00:33.372Z,6.10
2023-04-15T01:03:03.306Z,6.13
2023-04-15T01:05:31.967Z,6.10
2023-04-15T01:07:59.916Z,6.33
2023-04-15T01:10:27.934Z,6.93
2023-04-15T01:12:56.053Z,6.37
2023-04-15T01:15:24.188Z,6.07
2023-04-15T01:17:52.192Z,6.13
2023-04-15T01:20:22.296Z,6.53
2023-04-15T01:22:50.951Z,6.47
2023-04-15T01:25:21.666Z,6.87
2023-04-15T01:27:51.218Z,6.20
2023-04-15T01:30:19.156Z,5.63
2023-04-15T01:32:47.029Z,6.70
2023-04-15T01:35:14.932Z,9.57
2023-04-15T01:37:42.898Z,9.30
2023-04-15T01:40:11.279Z,9.20
2023-04-15T01:42:39.521Z,6.77
2023-04-15T01:45:10.582Z,6.70
2023-04-15T01:47:38.475Z,6.03
2023-04-15T01:50:08.584Z,8.17
2023-04-15T01:52:36.507Z,6.97
2023-04-15T01:55:04.491Z,6.83
2023-04-15T01:57:32.383Z,7.20
2023-04-15T02:00:00.265Z,6.60
2023-04-15T02:02:29.790Z,7.17
2023-04-15T02:04:58.168Z,6.03
2023-04-15T02:07:26.069Z,6.57
2023-04-15T02:09:54.432Z,6.57
2023-04-15T02:12:22.354Z,6.73
2023-04-15T02:14:50.289Z,6.83
2023-04-15T02:17:18.270Z,6.30
2023-04-15T02:19:48.224Z,6.73
2023-04-15T02:22:18.673Z,6.43
2023-04-15T02:24:47.528Z,7.53
2023-04-15T02:27:18.374Z,7.80
2023-04-15T02:29:46.599Z,8.40
2023-04-15T02:32:14.656Z,8.67
2023-04-15T02:34:43.080Z,7.73
2023-04-15T02:37:14.144Z,7.10
2023-04-15T02:39:42.102Z,6.43
2023-04-15T02:42:09.976Z,6.80
2023-04-15T02:44:38.021Z,5.97
2023-04-15T02:47:07.160Z,6.57
2023-04-15T02:49:35.142Z,5.93
2023-04-15T02:52:03.103Z,7.47
2023-04-15T02:54:33.943Z,6.80
2023-04-15T02:57:02.193Z,7.37
2023-04-15T02:59:30.248Z,6.63
2023-04-15T03:02:01.103Z,7.20
2023-04-15T03:04:30.241Z,7.33
2023-04-15T03:06:58.134Z,7.23
2023-04-15T03:09:26.514Z,7.00
2023-04-15T03:11:56.989Z,7.17
2023-04-15T03:14:24.917Z,7.43
2023-04-15T03:16:52.777Z,6.50
2023-04-15T03:19:20.686Z,7.50
2023-04-15T03:21:48.596Z,7.20
2023-04-15T03:24:16.661Z,6.50
2023-04-15T03:26:44.747Z,6.80
2023-04-15T03:29:14.052Z,7.07
2023-04-15T03:31:42.290Z,6.77
2023-04-15T03:34:10.142Z,7.07
2023-04-15T03:36:38.270Z,6.13
2023-04-15T03:39:06.250Z,6.73
2023-04-15T03:41:34.255Z,6.10
2023-04-15T03:44:02.300Z,7.07
2023-04-15T03:46:32.055Z,7.23
2023-04-15T03:49:00.396Z,9.60
2023-04-15T03:51:28.638Z,8.87
2023-04-15T03:53:57.072Z,8.83
2023-04-15T03:56:24.976Z,6.63
2023-04-15T03:58:52.946Z,6.90
2023-04-15T04:01:20.850Z,6.87
2023-04-15T04:03:50.308Z,6.43
2023-04-15T04:06:18.384Z,6.83
2023-04-15T04:08:46.365Z,6.17
2023-04-15T04:11:14.376Z,6.90
2023-04-15T04:13:42.312Z,6.30
2023-04-15T04:16:10.351Z,5.87
2023-04-15T04:18:38.621Z,7.63
2023-04-15T04:21:07.963Z,6.43
2023-04-15T04:23:35.960Z,6.40
2023-04-15T04:26:03.885Z,6.77
2023-04-15T04:28:31.765Z,7.23
2023-04-15T04:30:59.815Z,6.70
2023-04-15T04:33:27.677Z,7.17
2023-04-15T04:35:55.678Z,6.43
2023-04-15T04:38:25.052Z,6.93
2023-04-15T04:40:53.125Z,6.63
2023-04-15T04:43:21.142Z,7.33
2023-04-15T04:45:49.141Z,8.77
2023-04-15T04:48:17.418Z,7.60
2023-04-15T04:50:47.104Z,7.13
2023-04-15T04:53:16.223Z,7.30
2023-04-15T04:55:45.690Z,6.30
2023-04-15T04:58:13.676Z,7.40
2023-04-15T05:00:42.873Z,7.47
2023-04-15T05:03:10.971Z,7.27
2023-04-15T05:05:41.096Z,6.17
2023-04-15T05:08:09.066Z,6.23
2023-04-15T05:10:37.588Z,7.23
2023-04-15T05:13:06.955Z,7.07
2023-04-15T05:15:37.040Z,6.70
2023-04-15T05:18:05.162Z,7.03
2023-04-15T05:20:33.112Z,6.63
2023-04-15T05:23:01.162Z,6.83
2023-04-15T05:25:29.047Z,5.87
2023-04-15T05:27:57.014Z,6.23
2023-04-15T05:30:26.645Z,5.80
2023-04-15T05:32:54.640Z,6.07
2023-04-15T05:35:23.176Z,5.33
2023-04-15T05:37:51.200Z,5.13
2023-04-15T05:40:20.122Z,5.63
2023-04-15T05:42:48.021Z,5.07
2023-04-15T05:45:15.984Z,5.53
2023-04-15T05:47:45.364Z,5.63
2023-04-15T05:50:13.483Z,5.17
2023-04-15T05:52:41.588Z,5.90
2023-04-15T05:55:10.262Z,6.67
2023-04-15T05:57:38.161Z,6.03
2023-04-15T06:00:07.666Z,5.67
2023-04-15T06:02:35.688Z,7.23
2023-04-15T06:05:09.741Z,6.27
2023-04-15T06:07:38.700Z,5.83
2023-04-15T06:10:08.015Z,6.10
2023-04-15T06:12:35.994Z,5.63
2023-04-15T06:15:04.003Z,5.47
2023-04-15T06:17:31.942Z,5.40
2023-04-15T06:19:59.851Z,5.90
2023-04-15T06:22:29.149Z,6.00
2023-04-15T06:24:57.124Z,6.38
2023-04-15T06:27:25.141Z,5.90
2023-04-15T06:29:53.062Z,7.30
2023-04-15T06:32:21.005Z,6.10
2023-04-15T06:34:48.994Z,5.80
2023-04-15T06:37:16.875Z,5.60
2023-04-15T06:39:46.402Z,5.70
2023-04-15T06:42:14.619Z,6.30
2023-04-15T06:44:42.596Z,6.40
2023-04-15T06:47:10.521Z,5.87
2023-04-15T06:49:38.672Z,5.97
2023-04-15T06:52:06.779Z,5.80
2023-04-15T06:54:34.651Z,6.30
2023-04-15T06:57:03.922Z,6.50
2023-04-15T06:59:31.812Z,6.10
2023-04-15T07:01:59.866Z,6.93
2023-04-15T07:04:27.820Z,6.33
2023-04-15T07:06:56.996Z,5.67
2023-04-15T07:09:25.755Z,6.00
2023-04-15T07:11:53.743Z,5.97
2023-04-15T07:14:23.008Z,6.17
2023-04-15T07:16:51.135Z,6.37
2023-04-15T07:19:19.085Z,7.10
2023-04-15T07:21:48.202Z,5.83
2023-04-15T07:24:18.207Z,6.57
2023-04-15T07:26:46.245Z,6.90
2023-04-15T07:29:14.304Z,6.77
2023-04-15T07:31:43.776Z,7.03
2023-04-15T07:34:11.750Z,7.00
2023-04-15T07:36:40.518Z,7.30
2023-04-15T07:39:08.392Z,6.93
2023-04-15T07:41:36.387Z,7.20
2023-04-15T07:44:04.345Z,6.40
2023-04-15T07:46:32.324Z,6.57
2023-04-15T07:49:01.879Z,7.33
2023-04-15T07:51:30.811Z,6.67
2023-04-15T07:53:58.744Z,8.80
2023-04-15T07:56:27.268Z,6.53
2023-04-15T07:58:55.173Z,6.67
2023-04-15T08:01:24.054Z,7.23
2023-04-15T08:03:52.661Z,6.20
2023-04-15T08:06:22.811Z,7.13
2023-04-15T08:08:50.902Z,7.03
2023-04-15T08:11:18.867Z,6.77
2023-04-15T08:13:47.994Z,7.20
2023-04-15T08:16:19.857Z,6.90
2023-04-15T08:18:47.924Z,6.10
2023-04-15T08:21:16.051Z,7.80
2023-04-15T08:23:46.778Z,6.33
2023-04-15T08:26:14.778Z,6.73
2023-04-15T08:28:43.993Z,7.50
2023-04-15T08:31:12.042Z,6.43
2023-04-15T08:33:40.153Z,6.97
2023-04-15T08:36:08.659Z,6.67
2023-04-15T08:38:37.415Z,6.53
2023-04-15T08:41:20.165Z,7.30
2023-04-15T08:43:54.947Z,6.77
2023-04-15T08:46:23.732Z,7.83
2023-04-15T08:48:52.275Z,7.67
2023-04-15T08:51:20.418Z,7.17
2023-04-15T08:53:48.758Z,7.70
2023-04-15T08:56:18.985Z,6.60
2023-04-15T08:58:47.986Z,6.80
2023-04-15T09:01:15.922Z,7.20
2023-04-15T09:03:45.151Z,6.63
2023-04-15T09:06:13.144Z,8.43
2023-04-15T09:08:41.431Z,7.87
2023-04-15T09:11:09.363Z,7.30
2023-04-15T09:13:38.802Z,6.87
2023-04-15T09:16:08.367Z,6.67
2023-04-15T09:18:38.406Z,7.73
2023-04-15T09:21:08.982Z,9.23
2023-04-15T09:23:37.225Z,8.40
2023-04-15T09:26:06.433Z,8.40
2023-04-15T09:28:35.967Z,7.10
2023-04-15T09:31:05.328Z,8.47
2023-04-15T09:33:33.617Z,7.50
2023-04-15T09:36:04.711Z,6.90
2023-04-15T09:38:33.245Z,7.20
2023-04-15T09:41:01.186Z,7.67
2023-04-15T09:43:40.067Z,7.43
2023-04-15T09:46:09.531Z,8.00
2023-04-15T09:48:37.854Z,7.00
2023-04-15T09:51:06.198Z,7.50
2023-04-15T09:53:36.734Z,7.50
2023-04-15T09:56:07.858Z,7.00
2023-04-15T09:58:38.753Z,7.90
2023-04-15T10:01:09.188Z,7.10
2023-04-15T10:03:39.554Z,7.20
2023-04-15T10:06:08.148Z,7.90
2023-04-15T10:08:36.356Z,6.97
2023-04-15T10:11:05.036Z,7.73
2023-04-15T10:13:36.168Z,7.50
2023-04-15T10:16:07.554Z,8.73
2023-04-15T10:18:41.752Z,7.00
2023-04-15T10:21:10.331Z,6.97
2023-04-15T10:23:39.256Z,7.03
2023-04-15T10:26:07.869Z,7.47
2023-04-15T10:28:36.302Z,7.40
2023-04-15T10:31:07.320Z,8.03
2023-04-15T10:33:36.372Z,6.97
2023-04-15T10:36:07.866Z,7.77
2023-04-15T10:38:37.377Z,7.20
2023-04-15T10:41:17.062Z,7.17
2023-04-15T10:43:53.904Z,7.40
2023-04-15T10:46:26.689Z,7.40
2023-04-15T10:48:55.543Z,7.00
2023-04-15T10:51:32.593Z,7.47
2023-04-15T10:54:01.230Z,8.43
2023-04-15T10:56:32.269Z,7.30
2023-04-15T10:59:02.526Z,6.37
2023-04-15T11:01:51.978Z,7.90
2023-04-15T11:04:53.719Z,8.23
2023-04-15T11:07:43.607Z,7.13
2023-04-15T11:10:56.002Z,8.43
2023-04-15T11:13:29.382Z,7.60
2023-04-15T11:16:02.103Z,6.87
2023-04-15T11:18:35.193Z,7.53
2023-04-15T11:21:05.663Z,6.73
2023-04-15T11:23:37.262Z,6.63
2023-04-15T11:26:09.361Z,7.27
2023-04-15T11:28:39.129Z,7.53
2023-04-15T11:31:10.715Z,7.73
2023-04-15T11:33:39.173Z,6.57
2023-04-15T11:36:07.526Z,8.13
2023-04-15T11:38:38.047Z,7.03
2023-04-15T11:41:06.174Z,7.40
2023-04-15T11:43:35.574Z,7.33
2023-04-15T11:46:04.693Z,6.90
2023-04-15T11:48:34.778Z,7.83
2023-04-15T11:51:04.160Z,7.83
2023-04-15T11:53:41.574Z,7.97
2023-04-15T11:56:11.110Z,6.87
2023-04-15T11:58:39.635Z,6.23
2023-04-15T12:01:08.445Z,7.13
2023-04-15T12:03:40.858Z,6.63
2023-04-15T12:06:12.425Z,7.73
2023-04-15T12:09:02.801Z,7.40
2023-04-15T12:11:33.114Z,7.07
2023-04-15T12:14:05.858Z,7.30
2023-04-15T12:16:46.671Z,7.10
2023-04-15T12:19:19.490Z,7.23
2023-04-15T12:21:49.003Z,7.03
2023-04-15T12:24:22.886Z,6.40
2023-04-15T12:26:53.090Z,7.07
2023-04-15T12:29:22.237Z,8.93
2023-04-15T12:31:52.173Z,8.32
2023-04-15T12:34:26.920Z,8.07
2023-04-15T12:36:55.027Z,6.97
2023-04-15T12:39:25.408Z,7.57
2023-04-15T12:41:53.603Z,7.27
2023-04-15T12:44:24.005Z,7.47
2023-04-15T12:46:52.971Z,7.80
2023-04-15T12:49:21.722Z,7.90
2023-04-15T12:51:50.774Z,7.50
2023-04-15T12:54:19.143Z,7.90
2023-04-15T12:56:49.863Z,8.10
2023-04-15T12:59:18.855Z,7.57
2023-04-15T13:01:47.903Z,7.93
2023-04-15T13:04:16.518Z,7.93
2023-04-15T13:06:45.185Z,8.10
2023-04-15T13:09:13.278Z,7.70
2023-04-15T13:11:41.338Z,7.80
2023-04-15T13:14:11.716Z,7.53
2023-04-15T13:16:39.882Z,6.53
2023-04-15T13:19:08.107Z,7.27
2023-04-15T13:21:36.492Z,7.13
2023-04-15T13:24:07.371Z,6.87
2023-04-15T13:26:35.358Z,7.03
2023-04-15T13:29:03.251Z,6.57
2023-04-15T13:31:32.641Z,7.03
2023-04-15T13:34:00.635Z,6.57
2023-04-15T13:36:28.702Z,7.33
2023-04-15T13:38:57.054Z,7.07
2023-04-15T13:41:25.016Z,6.87
2023-04-15T13:43:52.905Z,6.67
2023-04-15T13:46:21.107Z,7.27
2023-04-15T13:48:50.405Z,6.40
2023-04-15T13:51:18.335Z,7.20
2023-04-15T13:53:46.315Z,6.77
2023-04-15T13:56:14.296Z,7.53
2023-04-15T13:58:42.575Z,6.83
2023-04-15T14:01:10.555Z,6.90
2023-04-15T14:03:39.025Z,6.70
2023-04-15T14:06:08.605Z,7.10
2023-04-15T14:08:36.551Z,6.87
2023-04-15T14:11:04.470Z,6.80
2023-04-15T14:13:32.410Z,7.37
2023-04-15T14:16:00.401Z,6.47
2023-04-15T14:18:28.400Z,7.33
2023-04-15T14:20:56.360Z,6.80
2023-04-15T14:23:25.645Z,6.57
2023-04-15T14:25:54.767Z,7.20
2023-04-15T14:28:22.660Z,6.60
2023-04-15T14:30:50.600Z,7.53
2023-04-15T14:33:18.611Z,7.47
2023-04-15T14:35:46.795Z,6.40
2023-04-15T14:38:14.769Z,7.40
2023-04-15T14:40:44.797Z,7.37
2023-04-15T14:43:12.978Z,7.27
2023-04-15T14:45:43.692Z,7.60
2023-04-15T14:48:13.368Z,8.30
2023-04-15T14:50:41.622Z,7.57
2023-04-15T14:53:10.867Z,7.83
2023-04-15T14:55:38.822Z,7.20
2023-04-15T14:58:09.460Z,7.23
2023-04-15T15:00:40.299Z,6.90
2023-04-15T15:03:12.931Z,7.60
2023-04-15T15:05:41.511Z,6.67
2023-04-15T15:08:10.123Z,6.50
2023-04-15T15:10:38.673Z,6.70
2023-04-15T15:13:17.136Z,6.40
2023-04-15T15:15:45.443Z,7.23
2023-04-15T15:18:13.451Z,6.83
2023-04-15T15:20:41.529Z,6.43
2023-04-15T15:23:09.466Z,5.87
2023-04-15T15:25:37.403Z,7.20
2023-04-15T15:28:05.879Z,7.10
2023-04-15T15:30:35.201Z,7.10
2023-04-15T15:33:03.214Z,6.77
2023-04-15T15:35:31.196Z,6.60
2023-04-15T15:38:00.624Z,7.20
2023-04-15T15:40:28.555Z,6.77
2023-04-15T15:42:56.463Z,7.37
2023-04-15T15:45:24.467Z,6.93
2023-04-15T15:47:53.849Z,6.70
2023-04-15T15:50:22.061Z,6.97
2023-04-15T15:52:49.978Z,6.47
2023-04-15T15:55:18.393Z,6.63
2023-04-15T15:57:46.493Z,6.53
2023-04-15T16:00:15.445Z,6.70
2023-04-15T16:05:15.907Z,6.20
2023-04-15T16:07:43.873Z,6.67
2023-04-15T16:10:14.064Z,7.10
2023-04-15T16:12:42.439Z,6.80
2023-04-15T16:15:12.103Z,6.50
2023-04-15T16:17:40.071Z,7.43
2023-04-15T16:20:09.027Z,7.77
2023-04-15T16:22:38.634Z,7.23
2023-04-15T16:25:07.284Z,7.63
2023-04-15T16:27:40.758Z,8.23
2023-04-15T16:30:18.345Z,7.57
2023-04-15T16:32:46.740Z,8.30
2023-04-15T16:35:16.339Z,8.77
2023-04-15T16:37:45.630Z,8.17
2023-04-15T16:40:13.993Z,8.37
2023-04-15T16:42:43.724Z,10.33
2023-04-15T16:45:12.147Z,9.30
2023-04-15T16:47:40.087Z,9.47
2023-04-15T16:50:09.105Z,7.77
2023-04-15T16:52:37.450Z,7.67
2023-04-15T16:55:07.497Z,8.73
2023-04-15T16:58:02.694Z,7.70
2023-04-15T17:00:23.662Z,8.80
2023-04-15T17:02:51.687Z,8.43
2023-04-15T17:05:19.922Z,7.60
2023-04-15T17:07:47.795Z,8.10
2023-04-15T17:10:17.404Z,7.80
2023-04-15T17:12:45.861Z,7.67
2023-04-15T17:15:13.960Z,7.20
2023-04-15T17:17:42.025Z,7.27
2023-04-15T17:20:13.337Z,7.73
2023-04-15T17:22:41.282Z,7.77
2023-04-15T17:25:09.844Z,7.50
2023-04-15T17:27:39.734Z,8.50
2023-04-15T17:30:09.362Z,7.87
2023-04-15T17:32:37.558Z,7.50
2023-04-15T17:35:06.865Z,7.07
2023-04-15T17:37:34.979Z,7.20
2023-04-15T17:40:08.618Z,6.07
2023-04-15T17:42:38.646Z,6.63
2023-04-15T17:45:07.726Z,7.00
2023-04-15T17:47:35.864Z,6.60
2023-04-15T17:50:03.876Z,7.00
2023-04-15T17:52:31.876Z,6.97
2023-04-15T17:54:59.769Z,7.13
2023-04-15T17:57:27.746Z,6.50
2023-04-15T17:59:57.146Z,6.73
2023-04-15T18:02:25.404Z,6.93
2023-04-15T18:04:53.681Z,7.03
2023-04-15T18:07:21.906Z,7.13
2023-04-15T18:09:50.737Z,6.50
2023-04-15T18:12:18.732Z,7.47
2023-04-15T18:14:46.736Z,6.33
2023-04-15T18:17:16.281Z,6.37
2023-04-15T18:19:45.958Z,7.23
2023-04-15T18:22:14.030Z,6.53
2023-04-15T18:24:42.017Z,6.47
2023-04-15T18:27:09.975Z,6.83
2023-04-15T18:29:38.536Z,6.07
2023-04-15T18:32:06.669Z,6.87
2023-04-15T18:34:36.027Z,6.97
2023-04-15T18:37:05.353Z,6.47
2023-04-15T18:39:33.434Z,6.30
2023-04-15T18:42:01.928Z,5.63
2023-04-15T18:44:29.854Z,5.73
2023-04-15T18:46:57.873Z,6.53
2023-04-15T18:49:27.179Z,6.00
2023-04-15T18:51:56.609Z,6.43
2023-04-15T18:54:24.475Z,5.00
2023-04-15T18:56:52.895Z,6.03
2023-04-15T18:59:29.291Z,6.60
2023-04-15T19:01:59.260Z,6.10
2023-04-15T19:04:28.814Z,5.90
2023-04-15T19:06:59.240Z,5.57
2023-04-15T19:09:27.475Z,5.70
2023-04-15T19:11:56.884Z,6.07
2023-04-15T19:14:24.911Z,6.47
2023-04-15T19:16:52.964Z,5.97
2023-04-15T19:19:21.030Z,5.70
2023-04-15T19:21:50.344Z,5.50
2023-04-15T19:24:20.063Z,6.57
2023-04-15T19:26:49.905Z,6.70
2023-04-15T19:29:18.404Z,6.70
2023-04-15T19:31:46.465Z,5.90
2023-04-15T19:34:14.434Z,5.93
2023-04-15T19:36:42.379Z,5.70
2023-04-15T19:39:11.066Z,5.60
2023-04-15T19:41:40.534Z,4.70
2023-04-15T19:44:08.507Z,6.07
2023-04-15T19:46:36.817Z,5.87
2023-04-15T19:49:05.206Z,6.03
2023-04-15T19:51:33.305Z,5.53
2023-04-15T19:54:01.296Z,5.77
2023-04-15T19:56:29.299Z,5.90
2023-04-15T19:58:59.759Z,4.90
2023-04-15T20:01:28.948Z,5.53
2023-04-15T20:03:57.152Z,5.47
2023-04-15T20:06:27.466Z,5.60
2023-04-15T20:08:55.408Z,5.73
2023-04-15T20:12:47.932Z,6.17
2023-04-15T20:14:18.650Z,5.33
2023-04-15T20:16:46.604Z,5.77
2023-04-15T20:19:14.736Z,5.30
2023-04-15T20:21:42.703Z,5.67
2023-04-15T20:24:10.884Z,5.37
2023-04-15T20:26:38.957Z,5.33
2023-04-15T20:29:07.047Z,5.93
2023-04-15T20:31:36.596Z,6.07
2023-04-15T20:34:04.529Z,5.67
2023-04-15T20:36:33.398Z,6.27
2023-04-15T20:39:01.667Z,5.45
2023-04-15T20:41:29.693Z,6.47
2023-04-15T20:43:57.640Z,6.60
2023-04-15T20:46:27.339Z,6.17
2023-04-15T20:48:57.201Z,6.00
2023-04-15T20:51:25.188Z,6.27
2023-04-15T20:53:53.141Z,6.50
2023-04-15T20:56:21.232Z,5.93
2023-04-15T20:58:49.166Z,5.97
2023-04-15T21:01:17.098Z,5.73
2023-04-15T21:03:45.191Z,5.40
2023-04-15T21:06:14.649Z,6.23
2023-04-15T21:08:42.595Z,5.37
2023-04-15T21:11:10.640Z,5.80
2023-04-15T21:13:38.609Z,6.13
2023-04-15T21:16:06.791Z,5.67
2023-04-15T21:18:34.823Z,6.07
2023-04-15T21:21:03.513Z,5.93
2023-04-15T21:23:35.937Z,5.67
2023-04-15T21:26:04.152Z,4.90
2023-04-15T21:28:32.699Z,5.73
2023-04-15T21:31:00.606Z,5.27
2023-04-15T21:33:28.530Z,6.47
2023-04-15T21:35:56.464Z,5.37
2023-04-15T21:38:24.395Z,5.40
2023-04-15T21:40:53.732Z,5.97
2023-04-15T21:43:22.967Z,5.47
2023-04-15T21:46:21.473Z,5.13
2023-04-15T21:48:38.863Z,5.47
2023-04-15T21:51:06.828Z,5.50
2023-04-15T21:53:34.962Z,5.23
2023-04-15T21:56:04.197Z,5.93
2023-04-15T21:58:32.368Z,4.97
2023-04-15T22:01:00.596Z,5.90
2023-04-15T22:03:30.567Z,6.30
2023-04-15T22:05:58.709Z,5.77
2023-04-15T22:08:26.609Z,5.90
2023-04-15T22:10:54.796Z,5.87
2023-04-15T22:13:24.080Z,5.43
2023-04-15T22:15:51.979Z,6.03
2023-04-15T22:18:19.860Z,6.03
2023-04-15T22:20:47.765Z,5.10
2023-04-15T22:23:17.541Z,5.33
2023-04-15T22:25:45.606Z,5.83
2023-04-15T22:28:14.207Z,5.63
2023-04-15T22:30:43.879Z,5.10
2023-04-15T22:33:12.211Z,5.43
2023-04-15T22:35:40.114Z,5.90
2023-04-15T22:38:08.140Z,6.07
2023-04-15T22:40:36.017Z,6.73
2023-04-15T22:43:04.052Z,5.93
2023-04-15T22:45:32.015Z,5.67
2023-04-15T22:48:02.624Z,5.27
2023-04-15T22:50:30.548Z,5.00
2023-04-15T22:52:58.496Z,5.33
2023-04-15T22:55:26.462Z,4.80
2023-04-15T22:57:54.433Z,6.40
2023-04-15T23:00:22.460Z,5.18
2023-04-15T23:02:50.719Z,6.07
2023-04-15T23:05:20.222Z,6.10
2023-04-15T23:07:48.255Z,5.53
2023-04-15T23:10:16.291Z,4.87
2023-04-15T23:12:44.228Z,5.07
2023-04-15T23:15:12.920Z,5.30
2023-04-15T23:17:41.039Z,5.57
2023-04-15T23:20:09.548Z,5.63
2023-04-15T23:22:38.948Z,5.83
2023-04-15T23:25:07.274Z,5.70
2023-04-15T23:27:35.555Z,5.33
2023-04-15T23:30:04.049Z,5.57
2023-04-15T23:32:32.058Z,5.77
2023-04-15T23:35:00.029Z,5.70
2023-04-15T23:37:27.976Z,5.33
2023-04-15T23:39:57.300Z,5.43
2023-04-15T23:42:25.940Z,5.47
2023-04-15T23:44:54.056Z,5.77
2023-04-15T23:47:23.011Z,5.77
2023-04-15T23:49:50.970Z,5.57
2023-04-15T23:52:19.064Z,5.60
2023-04-15T23:54:47.035Z,5.63
2023-04-15T23:57:16.289Z,5.47
2023-04-15T23:59:44.188Z,5.03
